Cardenal Cagliero, Argentina
Current Conditions -  °F | °C
As of 12:00 PM on Thursday 18 Dec 2014 (Local Time) from SAZN Reporting Station
Clear Clear  
Wind Chill: 27°   Ceiling: Unl
Heat Index: 27°   Visibility: 6mi
Dew Point:   Wind: 7mph
Humidity: 18%   Direction: 230°SW
Pressure: 29.83"   Gusts: NA
Location:  40.65°S, 62.75°W
Report Text: SAZN 181500Z 23006KT CAVOK 27/01 Q1010
Loading
Personal Weather Stations






























Interactive Weather Map New forecast layout! Learn more

10-Day Weather Forecast

Advertisements
Track Severe Weather on mobile